sensor_id;sensor_type;location;lat;lon;timestamp;temperature;humidity
19365;DHT22;9818;48.382;10.850;2022-07-29T00:01:47;19.20;99.90
19365;DHT22;9818;48.382;10.850;2022-07-29T00:04:18;19.20;99.90
19365;DHT22;9818;48.382;10.850;2022-07-29T00:06:49;19.10;99.90
19365;DHT22;9818;48.382;10.850;2022-07-29T00:09:20;18.90;99.90
19365;DHT22;9818;48.382;10.850;2022-07-29T00:11:51;19.00;99.90
19365;DHT22;9818;48.382;10.850;2022-07-29T00:14:22;18.90;99.90
19365;DHT22;9818;48.382;10.850;2022-07-29T00:16:56;18.70;99.90
19365;DHT22;9818;48.382;10.850;2022-07-29T00:19:27;18.70;99.90
19365;DHT22;9818;48.382;10.850;2022-07-29T00:21:57;18.70;99.90
19365;DHT22;9818;48.382;10.850;2022-07-29T00:24:28;18.60;99.90
19365;DHT22;9818;48.382;10.850;2022-07-29T00:26:59;18.70;99.90
19365;DHT22;9818;48.382;10.850;2022-07-29T00:29:31;18.80;99.90
19365;DHT22;9818;48.382;10.850;2022-07-29T00:32:05;18.80;99.90
19365;DHT22;9818;48.382;10.850;2022-07-29T00:34:35;18.80;99.90
19365;DHT22;9818;48.382;10.850;2022-07-29T00:37:17;18.90;99.90
19365;DHT22;9818;48.382;10.850;2022-07-29T00:39:48;18.80;99.90
19365;DHT22;9818;48.382;10.850;2022-07-29T00:42:18;18.60;99.90
19365;DHT22;9818;48.382;10.850;2022-07-29T00:44:50;18.50;99.90
19365;DHT22;9818;48.382;10.850;2022-07-29T00:47:24;18.50;99.90
19365;DHT22;9818;48.382;10.850;2022-07-29T00:49:55;18.50;99.90
19365;DHT22;9818;48.382;10.850;2022-07-29T00:52:26;18.50;99.90
19365;DHT22;9818;48.382;10.850;2022-07-29T00:54:57;18.40;99.90
19365;DHT22;9818;48.382;10.850;2022-07-29T00:57:29;18.30;99.90
19365;DHT22;9818;48.382;10.850;2022-07-29T01:00:02;18.20;99.90
19365;DHT22;9818;48.382;10.850;2022-07-29T01:02:37;18.20;99.90
19365;DHT22;9818;48.382;10.850;2022-07-29T01:05:09;18.20;99.90
19365;DHT22;9818;48.382;10.850;2022-07-29T01:07:43;18.20;99.90
19365;DHT22;9818;48.382;10.850;2022-07-29T01:20:24;17.90;99.90
19365;DHT22;9818;48.382;10.850;2022-07-29T01:23:21;17.80;99.90
19365;DHT22;9818;48.382;10.850;2022-07-29T01:26:03;17.80;99.90
19365;DHT22;9818;48.382;10.850;2022-07-29T01:28:47;17.80;99.90
19365;DHT22;9818;48.382;10.850;2022-07-29T01:31:22;17.70;99.90
19365;DHT22;9818;48.382;10.850;2022-07-29T01:33:57;17.70;99.90
19365;DHT22;9818;48.382;10.850;2022-07-29T01:36:31;17.60;99.90
19365;DHT22;9818;48.382;10.850;2022-07-29T01:39:05;17.60;99.90
19365;DHT22;9818;48.382;10.850;2022-07-29T01:41:37;17.60;99.90
19365;DHT22;9818;48.382;10.850;2022-07-29T01:44:15;17.60;99.90
19365;DHT22;9818;48.382;10.850;2022-07-29T01:46:50;17.60;99.90
19365;DHT22;9818;48.382;10.850;2022-07-29T01:49:23;17.60;99.90
19365;DHT22;9818;48.382;10.850;2022-07-29T01:51:54;17.60;99.90
19365;DHT22;9818;48.382;10.850;2022-07-29T01:54:30;17.60;99.90
19365;DHT22;9818;48.382;10.850;2022-07-29T01:57:01;17.60;99.90
19365;DHT22;9818;48.382;10.850;2022-07-29T01:59:34;17.60;99.90
19365;DHT22;9818;48.382;10.850;2022-07-29T02:02:04;17.50;99.90
19365;DHT22;9818;48.382;10.850;2022-07-29T02:04:37;17.50;99.90
19365;DHT22;9818;48.382;10.850;2022-07-29T02:07:10;17.50;99.90
19365;DHT22;9818;48.382;10.850;2022-07-29T02:09:41;17.50;99.90
19365;DHT22;9818;48.382;10.850;2022-07-29T02:12:11;17.50;99.90
19365;DHT22;9818;48.382;10.850;2022-07-29T02:14:47;17.50;99.90
19365;DHT22;9818;48.382;10.850;2022-07-29T02:17:22;17.50;99.90
19365;DHT22;9818;48.382;10.850;2022-07-29T02:19:52;17.50;99.90
19365;DHT22;9818;48.382;10.850;2022-07-29T02:22:24;17.40;99.90
19365;DHT22;9818;48.382;10.850;2022-07-29T02:24:53;17.40;99.90
19365;DHT22;9818;48.382;10.850;2022-07-29T02:27:23;17.40;99.90
19365;DHT22;9818;48.382;10.850;2022-07-29T02:29:57;17.40;99.90
19365;DHT22;9818;48.382;10.850;2022-07-29T02:32:28;17.40;99.90
19365;DHT22;9818;48.382;10.850;2022-07-29T02:34:58;17.40;99.90
19365;DHT22;9818;48.382;10.850;2022-07-29T02:37:28;17.40;99.90
19365;DHT22;9818;48.382;10.850;2022-07-29T02:39:58;17.40;99.90
19365;DHT22;9818;48.382;10.850;2022-07-29T02:42:28;17.40;99.90
19365;DHT22;9818;48.382;10.850;2022-07-29T02:45:00;17.40;99.90
19365;DHT22;9818;48.382;10.850;2022-07-29T02:47:33;17.40;99.90
19365;DHT22;9818;48.382;10.850;2022-07-29T02:50:06;17.40;99.90
19365;DHT22;9818;48.382;10.850;2022-07-29T02:52:41;17.40;99.90
19365;DHT22;9818;48.382;10.850;2022-07-29T02:55:16;17.40;99.90
19365;DHT22;9818;48.382;10.850;2022-07-29T02:57:49;17.40;99.90
19365;DHT22;9818;48.382;10.850;2022-07-29T03:00:23;17.40;99.90
19365;DHT22;9818;48.382;10.850;2022-07-29T03:02:58;17.50;99.90
19365;DHT22;9818;48.382;10.850;2022-07-29T03:05:27;17.60;99.90
19365;DHT22;9818;48.382;10.850;2022-07-29T03:07:58;17.70;99.90
19365;DHT22;9818;48.382;10.850;2022-07-29T03:10:29;17.70;99.90
19365;DHT22;9818;48.382;10.850;2022-07-29T03:12:59;17.80;99.90
19365;DHT22;9818;48.382;10.850;2022-07-29T03:15:32;17.80;99.90
19365;DHT22;9818;48.382;10.850;2022-07-29T03:18:01;17.70;99.90
19365;DHT22;9818;48.382;10.850;2022-07-29T03:20:30;17.60;99.90
19365;DHT22;9818;48.382;10.850;2022-07-29T03:22:59;17.50;99.90
19365;DHT22;9818;48.382;10.850;2022-07-29T03:25:28;17.50;99.90
19365;DHT22;9818;48.382;10.850;2022-07-29T03:27:57;17.40;99.90
19365;DHT22;9818;48.382;10.850;2022-07-29T03:30:25;17.30;99.90
19365;DHT22;9818;48.382;10.850;2022-07-29T03:32:58;17.20;99.90
19365;DHT22;9818;48.382;10.850;2022-07-29T03:35:27;17.10;99.90
19365;DHT22;9818;48.382;10.850;2022-07-29T03:37:57;17.10;99.90
19365;DHT22;9818;48.382;10.850;2022-07-29T03:40:30;17.00;99.90
19365;DHT22;9818;48.382;10.850;2022-07-29T03:43:00;17.00;99.90
19365;DHT22;9818;48.382;10.850;2022-07-29T03:45:31;17.00;99.90
19365;DHT22;9818;48.382;10.850;2022-07-29T03:48:08;17.00;99.90
19365;DHT22;9818;48.382;10.850;2022-07-29T03:50:37;16.90;99.90
19365;DHT22;9818;48.382;10.850;2022-07-29T03:53:06;17.00;99.90
19365;DHT22;9818;48.382;10.850;2022-07-29T03:55:40;17.00;99.90
19365;DHT22;9818;48.382;10.850;2022-07-29T03:58:11;17.00;99.90
19365;DHT22;9818;48.382;10.850;2022-07-29T04:00:42;17.00;99.90
19365;DHT22;9818;48.382;10.850;2022-07-29T04:03:13;17.10;99.90
19365;DHT22;9818;48.382;10.850;2022-07-29T04:05:42;17.10;99.90
19365;DHT22;9818;48.382;10.850;2022-07-29T04:08:11;17.30;99.90
19365;DHT22;9818;48.382;10.850;2022-07-29T04:10:39;17.40;99.90
19365;DHT22;9818;48.382;10.850;2022-07-29T04:13:08;17.50;99.90
19365;DHT22;9818;48.382;10.850;2022-07-29T04:15:37;17.50;99.90
19365;DHT22;9818;48.382;10.850;2022-07-29T04:18:06;17.50;99.90
19365;DHT22;9818;48.382;10.850;2022-07-29T04:20:37;17.30;99.90
19365;DHT22;9818;48.382;10.850;2022-07-29T04:23:06;17.30;99.90
19365;DHT22;9818;48.382;10.850;2022-07-29T04:25:37;17.20;99.90
19365;DHT22;9818;48.382;10.850;2022-07-29T04:28:07;17.30;99.90
19365;DHT22;9818;48.382;10.850;2022-07-29T04:30:37;17.80;99.90
19365;DHT22;9818;48.382;10.850;2022-07-29T04:33:07;19.30;99.90
19365;DHT22;9818;48.382;10.850;2022-07-29T04:35:38;20.90;99.90
19365;DHT22;9818;48.382;10.850;2022-07-29T04:38:07;21.80;99.90
19365;DHT22;9818;48.382;10.850;2022-07-29T04:40:35;22.50;99.90
19365;DHT22;9818;48.382;10.850;2022-07-29T04:43:04;23.30;99.90
19365;DHT22;9818;48.382;10.850;2022-07-29T04:45:33;23.70;99.90
19365;DHT22;9818;48.382;10.850;2022-07-29T04:48:02;25.10;99.90
19365;DHT22;9818;48.382;10.850;2022-07-29T04:50:30;26.70;99.90
19365;DHT22;9818;48.382;10.850;2022-07-29T04:53:02;27.00;99.90
19365;DHT22;9818;48.382;10.850;2022-07-29T04:55:30;26.80;99.90
19365;DHT22;9818;48.382;10.850;2022-07-29T04:57:59;27.10;99.90
19365;DHT22;9818;48.382;10.850;2022-07-29T05:00:28;27.40;99.90
19365;DHT22;9818;48.382;10.850;2022-07-29T05:02:57;26.80;99.90
19365;DHT22;9818;48.382;10.850;2022-07-29T05:05:25;27.60;99.90
19365;DHT22;9818;48.382;10.850;2022-07-29T05:07:54;28.90;99.90
19365;DHT22;9818;48.382;10.850;2022-07-29T05:10:25;30.30;99.90
19365;DHT22;9818;48.382;10.850;2022-07-29T05:12:54;30.10;99.90
19365;DHT22;9818;48.382;10.850;2022-07-29T05:15:23;28.50;99.90
19365;DHT22;9818;48.382;10.850;2022-07-29T05:17:52;28.20;99.90
19365;DHT22;9818;48.382;10.850;2022-07-29T05:20:20;30.50;99.90
19365;DHT22;9818;48.382;10.850;2022-07-29T05:22:53;31.50;99.90
19365;DHT22;9818;48.382;10.850;2022-07-29T05:25:26;33.00;99.90
19365;DHT22;9818;48.382;10.850;2022-07-29T05:27:55;29.20;99.90
19365;DHT22;9818;48.382;10.850;2022-07-29T05:30:24;28.60;99.90
19365;DHT22;9818;48.382;10.850;2022-07-29T05:32:52;29.90;99.90
19365;DHT22;9818;48.382;10.850;2022-07-29T05:35:21;29.50;99.90
19365;DHT22;9818;48.382;10.850;2022-07-29T05:37:49;26.80;99.90
19365;DHT22;9818;48.382;10.850;2022-07-29T05:40:18;28.60;99.90
19365;DHT22;9818;48.382;10.850;2022-07-29T05:42:49;29.50;99.90
19365;DHT22;9818;48.382;10.850;2022-07-29T05:45:18;26.90;99.90
19365;DHT22;9818;48.382;10.850;2022-07-29T05:47:47;28.30;99.90
19365;DHT22;9818;48.382;10.850;2022-07-29T05:50:16;29.80;99.90
19365;DHT22;9818;48.382;10.850;2022-07-29T05:52:44;31.60;99.90
19365;DHT22;9818;48.382;10.850;2022-07-29T05:55:13;29.00;99.90
19365;DHT22;9818;48.382;10.850;2022-07-29T05:57:42;28.80;99.90
19365;DHT22;9818;48.382;10.850;2022-07-29T06:00:14;32.00;99.90
19365;DHT22;9818;48.382;10.850;2022-07-29T06:02:43;32.70;99.90
19365;DHT22;9818;48.382;10.850;2022-07-29T06:05:12;30.60;99.90
19365;DHT22;9818;48.382;10.850;2022-07-29T06:07:41;29.10;99.90
19365;DHT22;9818;48.382;10.850;2022-07-29T06:10:09;27.30;99.90
19365;DHT22;9818;48.382;10.850;2022-07-29T06:12:38;26.80;99.90
19365;DHT22;9818;48.382;10.850;2022-07-29T06:15:08;26.60;99.90
19365;DHT22;9818;48.382;10.850;2022-07-29T06:17:40;29.40;99.90
19365;DHT22;9818;48.382;10.850;2022-07-29T06:20:10;32.80;99.90
19365;DHT22;9818;48.382;10.850;2022-07-29T06:22:38;34.60;99.90
19365;DHT22;9818;48.382;10.850;2022-07-29T06:25:08;35.40;99.90
19365;DHT22;9818;48.382;10.850;2022-07-29T06:27:37;34.50;99.90
19365;DHT22;9818;48.382;10.850;2022-07-29T06:30:07;32.20;99.90
19365;DHT22;9818;48.382;10.850;2022-07-29T06:32:36;34.10;99.90
19365;DHT22;9818;48.382;10.850;2022-07-29T06:35:08;36.30;99.90
19365;DHT22;9818;48.382;10.850;2022-07-29T06:37:37;37.50;99.90
19365;DHT22;9818;48.382;10.850;2022-07-29T06:40:06;37.50;99.90
19365;DHT22;9818;48.382;10.850;2022-07-29T06:42:48;38.20;99.90
19365;DHT22;9818;48.382;10.850;2022-07-29T06:45:16;38.50;96.60
19365;DHT22;9818;48.382;10.850;2022-07-29T06:47:46;37.10;99.90
19365;DHT22;9818;48.382;10.850;2022-07-29T06:50:17;37.70;99.90
19365;DHT22;9818;48.382;10.850;2022-07-29T06:52:47;38.20;94.50
19365;DHT22;9818;48.382;10.850;2022-07-29T06:55:15;37.10;97.00
19365;DHT22;9818;48.382;10.850;2022-07-29T06:57:44;36.50;99.90
19365;DHT22;9818;48.382;10.850;2022-07-29T07:00:14;35.80;99.90
19365;DHT22;9818;48.382;10.850;2022-07-29T07:02:42;36.60;99.90
19365;DHT22;9818;48.382;10.850;2022-07-29T07:05:11;38.20;99.50
19365;DHT22;9818;48.382;10.850;2022-07-29T07:07:42;38.80;92.90
19365;DHT22;9818;48.382;10.850;2022-07-29T07:10:10;39.30;91.40
19365;DHT22;9818;48.382;10.850;2022-07-29T07:12:40;39.80;76.00
19365;DHT22;9818;48.382;10.850;2022-07-29T07:15:09;38.40;78.30
19365;DHT22;9818;48.382;10.850;2022-07-29T07:17:37;36.00;99.90
19365;DHT22;9818;48.382;10.850;2022-07-29T07:20:06;34.90;99.90
19365;DHT22;9818;48.382;10.850;2022-07-29T07:22:35;36.50;96.00
19365;DHT22;9818;48.382;10.850;2022-07-29T07:25:06;35.60;96.10
19365;DHT22;9818;48.382;10.850;2022-07-29T07:27:36;35.10;99.90
19365;DHT22;9818;48.382;10.850;2022-07-29T07:30:05;36.50;90.60
19365;DHT22;9818;48.382;10.850;2022-07-29T07:32:33;34.70;99.90
19365;DHT22;9818;48.382;10.850;2022-07-29T07:35:02;35.40;99.40
19365;DHT22;9818;48.382;10.850;2022-07-29T07:37:31;35.60;99.70
19365;DHT22;9818;48.382;10.850;2022-07-29T07:40:00;34.20;99.90
19365;DHT22;9818;48.382;10.850;2022-07-29T07:42:31;32.60;99.90
19365;DHT22;9818;48.382;10.850;2022-07-29T07:45:00;32.20;99.90
19365;DHT22;9818;48.382;10.850;2022-07-29T07:47:29;31.70;99.90
19365;DHT22;9818;48.382;10.850;2022-07-29T07:49:57;33.00;99.90
19365;DHT22;9818;48.382;10.850;2022-07-29T07:52:26;32.20;99.90
19365;DHT22;9818;48.382;10.850;2022-07-29T07:54:54;31.10;99.90
19365;DHT22;9818;48.382;10.850;2022-07-29T07:57:23;31.80;99.90
19365;DHT22;9818;48.382;10.850;2022-07-29T07:59:54;30.60;99.90
19365;DHT22;9818;48.382;10.850;2022-07-29T08:02:22;30.70;99.90
19365;DHT22;9818;48.382;10.850;2022-07-29T08:04:51;31.40;99.90
19365;DHT22;9818;48.382;10.850;2022-07-29T08:07:19;31.10;99.90
19365;DHT22;9818;48.382;10.850;2022-07-29T08:09:47;30.60;99.90
19365;DHT22;9818;48.382;10.850;2022-07-29T08:12:16;29.60;99.90
19365;DHT22;9818;48.382;10.850;2022-07-29T08:14:44;28.90;99.90
19365;DHT22;9818;48.382;10.850;2022-07-29T08:17:15;28.40;99.90
19365;DHT22;9818;48.382;10.850;2022-07-29T08:19:44;28.20;99.90
19365;DHT22;9818;48.382;10.850;2022-07-29T08:22:14;28.00;99.90
19365;DHT22;9818;48.382;10.850;2022-07-29T08:24:42;27.60;99.90
19365;DHT22;9818;48.382;10.850;2022-07-29T08:27:18;28.20;99.90
19365;DHT22;9818;48.382;10.850;2022-07-29T08:29:47;28.70;99.90
19365;DHT22;9818;48.382;10.850;2022-07-29T08:32:19;28.60;99.90
19365;DHT22;9818;48.382;10.850;2022-07-29T08:34:47;28.60;99.90
19365;DHT22;9818;48.382;10.850;2022-07-29T08:37:16;29.00;99.90
19365;DHT22;9818;48.382;10.850;2022-07-29T08:39:44;28.30;99.90
19365;DHT22;9818;48.382;10.850;2022-07-29T08:42:13;27.90;99.90
19365;DHT22;9818;48.382;10.850;2022-07-29T08:44:42;27.90;99.90
19365;DHT22;9818;48.382;10.850;2022-07-29T08:47:10;28.10;99.90
19365;DHT22;9818;48.382;10.850;2022-07-29T08:49:44;28.40;99.90
19365;DHT22;9818;48.382;10.850;2022-07-29T08:52:13;28.60;99.90
19365;DHT22;9818;48.382;10.850;2022-07-29T08:54:43;29.20;99.90
19365;DHT22;9818;48.382;10.850;2022-07-29T08:57:12;29.00;99.90
19365;DHT22;9818;48.382;10.850;2022-07-29T08:59:41;29.10;99.90
19365;DHT22;9818;48.382;10.850;2022-07-29T09:02:16;28.90;99.90
19365;DHT22;9818;48.382;10.850;2022-07-29T09:04:49;28.50;99.90
19365;DHT22;9818;48.382;10.850;2022-07-29T09:07:18;28.70;99.90
19365;DHT22;9818;48.382;10.850;2022-07-29T09:09:46;29.20;99.90
19365;DHT22;9818;48.382;10.850;2022-07-29T09:12:15;29.70;99.90
19365;DHT22;9818;48.382;10.850;2022-07-29T09:14:43;29.10;99.90
19365;DHT22;9818;48.382;10.850;2022-07-29T09:17:12;28.70;99.90
19365;DHT22;9818;48.382;10.850;2022-07-29T09:19:42;28.70;99.90
19365;DHT22;9818;48.382;10.850;2022-07-29T09:22:13;28.80;99.90
19365;DHT22;9818;48.382;10.850;2022-07-29T09:24:58;28.60;99.90
19365;DHT22;9818;48.382;10.850;2022-07-29T09:27:26;29.50;99.90
19365;DHT22;9818;48.382;10.850;2022-07-29T09:29:56;31.10;99.90
19365;DHT22;9818;48.382;10.850;2022-07-29T09:32:25;31.60;99.90
19365;DHT22;9818;48.382;10.850;2022-07-29T09:37:41;30.90;99.90
19365;DHT22;9818;48.382;10.850;2022-07-29T09:40:13;31.00;99.90
19365;DHT22;9818;48.382;10.850;2022-07-29T09:42:41;30.60;99.90
19365;DHT22;9818;48.382;10.850;2022-07-29T09:45:10;32.20;99.90
19365;DHT22;9818;48.382;10.850;2022-07-29T09:47:44;32.70;99.90
19365;DHT22;9818;48.382;10.850;2022-07-29T09:50:16;33.00;99.90
19365;DHT22;9818;48.382;10.850;2022-07-29T09:52:52;33.30;99.90
19365;DHT22;9818;48.382;10.850;2022-07-29T09:55:21;34.00;99.90
19365;DHT22;9818;48.382;10.850;2022-07-29T09:57:50;34.30;99.90
19365;DHT22;9818;48.382;10.850;2022-07-29T10:00:19;34.50;99.90
19365;DHT22;9818;48.382;10.850;2022-07-29T10:02:50;34.30;99.90
19365;DHT22;9818;48.382;10.850;2022-07-29T10:05:23;34.00;99.90
19365;DHT22;9818;48.382;10.850;2022-07-29T10:07:58;33.40;99.90
19365;DHT22;9818;48.382;10.850;2022-07-29T10:10:29;33.20;99.90
19365;DHT22;9818;48.382;10.850;2022-07-29T10:13:00;32.50;99.90
19365;DHT22;9818;48.382;10.850;2022-07-29T10:15:31;32.40;99.90
19365;DHT22;9818;48.382;10.850;2022-07-29T10:18:03;32.00;99.90
19365;DHT22;9818;48.382;10.850;2022-07-29T10:20:31;32.70;99.90
19365;DHT22;9818;48.382;10.850;2022-07-29T10:23:03;33.50;99.90
19365;DHT22;9818;48.382;10.850;2022-07-29T10:25:32;34.00;99.90
19365;DHT22;9818;48.382;10.850;2022-07-29T10:28:01;33.90;99.90
19365;DHT22;9818;48.382;10.850;2022-07-29T10:30:29;34.50;99.90
19365;DHT22;9818;48.382;10.850;2022-07-29T10:33:13;35.00;99.90
19365;DHT22;9818;48.382;10.850;2022-07-29T10:36:02;34.60;99.90
19365;DHT22;9818;48.382;10.850;2022-07-29T10:38:44;33.90;99.90
19365;DHT22;9818;48.382;10.850;2022-07-29T10:41:17;34.20;99.90
19365;DHT22;9818;48.382;10.850;2022-07-29T10:43:58;33.50;99.90
19365;DHT22;9818;48.382;10.850;2022-07-29T10:46:27;34.40;99.90
19365;DHT22;9818;48.382;10.850;2022-07-29T10:49:09;34.30;99.90
19365;DHT22;9818;48.382;10.850;2022-07-29T10:54:39;34.80;99.90
19365;DHT22;9818;48.382;10.850;2022-07-29T10:57:20;35.40;99.90
19365;DHT22;9818;48.382;10.850;2022-07-29T10:59:51;35.10;99.90
19365;DHT22;9818;48.382;10.850;2022-07-29T11:02:46;35.30;99.60
19365;DHT22;9818;48.382;10.850;2022-07-29T11:05:20;35.30;99.90
19365;DHT22;9818;48.382;10.850;2022-07-29T11:10:35;32.50;99.90
19365;DHT22;9818;48.382;10.850;2022-07-29T11:13:04;31.70;99.90
19365;DHT22;9818;48.382;10.850;2022-07-29T11:15:51;31.40;99.90
19365;DHT22;9818;48.382;10.850;2022-07-29T11:18:20;30.90;99.90
19365;DHT22;9818;48.382;10.850;2022-07-29T11:20:49;30.40;99.90
19365;DHT22;9818;48.382;10.850;2022-07-29T11:23:25;30.00;99.90
19365;DHT22;9818;48.382;10.850;2022-07-29T11:28:42;30.00;99.90
19365;DHT22;9818;48.382;10.850;2022-07-29T11:31:16;30.10;99.90
19365;DHT22;9818;48.382;10.850;2022-07-29T11:33:47;30.50;99.90
19365;DHT22;9818;48.382;10.850;2022-07-29T11:36:16;30.20;99.90
19365;DHT22;9818;48.382;10.850;2022-07-29T11:38:44;29.90;99.90
19365;DHT22;9818;48.382;10.850;2022-07-29T11:41:19;29.90;99.90
19365;DHT22;9818;48.382;10.850;2022-07-29T11:43:50;30.30;99.90
19365;DHT22;9818;48.382;10.850;2022-07-29T11:49:03;30.70;99.90
19365;DHT22;9818;48.382;10.850;2022-07-29T11:51:31;30.50;99.90
19365;DHT22;9818;48.382;10.850;2022-07-29T11:54:00;31.10;99.90
19365;DHT22;9818;48.382;10.850;2022-07-29T11:56:29;31.40;99.90
19365;DHT22;9818;48.382;10.850;2022-07-29T11:59:06;31.50;99.90
19365;DHT22;9818;48.382;10.850;2022-07-29T12:01:34;31.20;99.90
19365;DHT22;9818;48.382;10.850;2022-07-29T12:04:03;31.70;99.90
19365;DHT22;9818;48.382;10.850;2022-07-29T12:06:32;31.20;99.90
19365;DHT22;9818;48.382;10.850;2022-07-29T12:09:00;30.90;99.90
19365;DHT22;9818;48.382;10.850;2022-07-29T12:11:34;30.70;99.90
19365;DHT22;9818;48.382;10.850;2022-07-29T12:14:05;30.70;99.90
19365;DHT22;9818;48.382;10.850;2022-07-29T12:16:34;30.80;99.90
19365;DHT22;9818;48.382;10.850;2022-07-29T12:19:03;30.70;99.90
19365;DHT22;9818;48.382;10.850;2022-07-29T12:21:42;30.20;99.90
19365;DHT22;9818;48.382;10.850;2022-07-29T12:24:11;30.10;99.90
19365;DHT22;9818;48.382;10.850;2022-07-29T12:26:48;30.30;99.90
19365;DHT22;9818;48.382;10.850;2022-07-29T12:29:19;30.30;99.90
19365;DHT22;9818;48.382;10.850;2022-07-29T12:31:51;30.10;99.90
19365;DHT22;9818;48.382;10.850;2022-07-29T12:34:20;30.70;99.90
19365;DHT22;9818;48.382;10.850;2022-07-29T12:36:50;30.90;99.90
19365;DHT22;9818;48.382;10.850;2022-07-29T12:39:18;30.80;99.80
19365;DHT22;9818;48.382;10.850;2022-07-29T12:41:47;30.10;99.90
19365;DHT22;9818;48.382;10.850;2022-07-29T12:44:16;29.70;99.90
19365;DHT22;9818;48.382;10.850;2022-07-29T12:46:47;29.80;99.90
19365;DHT22;9818;48.382;10.850;2022-07-29T12:49:29;29.40;99.90
19365;DHT22;9818;48.382;10.850;2022-07-29T12:51:57;28.90;99.90
19365;DHT22;9818;48.382;10.850;2022-07-29T12:54:26;28.80;99.90
19365;DHT22;9818;48.382;10.850;2022-07-29T12:56:57;28.60;99.90
19365;DHT22;9818;48.382;10.850;2022-07-29T12:59:26;28.20;99.90
19365;DHT22;9818;48.382;10.850;2022-07-29T13:01:57;28.10;99.90
19365;DHT22;9818;48.382;10.850;2022-07-29T13:04:27;28.20;99.90
19365;DHT22;9818;48.382;10.850;2022-07-29T13:06:59;27.90;99.90
19365;DHT22;9818;48.382;10.850;2022-07-29T13:09:35;27.60;99.90
19365;DHT22;9818;48.382;10.850;2022-07-29T13:12:06;27.50;99.90
19365;DHT22;9818;48.382;10.850;2022-07-29T13:14:36;27.30;99.90
19365;DHT22;9818;48.382;10.850;2022-07-29T13:17:08;27.20;99.90
19365;DHT22;9818;48.382;10.850;2022-07-29T13:19:38;27.10;99.90
19365;DHT22;9818;48.382;10.850;2022-07-29T13:22:06;27.00;99.90
19365;DHT22;9818;48.382;10.850;2022-07-29T13:24:44;27.00;99.90
19365;DHT22;9818;48.382;10.850;2022-07-29T13:27:13;26.80;99.90
19365;DHT22;9818;48.382;10.850;2022-07-29T13:29:42;26.90;99.90
19365;DHT22;9818;48.382;10.850;2022-07-29T13:32:14;26.90;99.90
19365;DHT22;9818;48.382;10.850;2022-07-29T13:34:42;26.90;99.90
19365;DHT22;9818;48.382;10.850;2022-07-29T13:37:11;27.00;99.90
19365;DHT22;9818;48.382;10.850;2022-07-29T13:39:39;27.10;99.90
19365;DHT22;9818;48.382;10.850;2022-07-29T13:42:08;27.20;99.90
19365;DHT22;9818;48.382;10.850;2022-07-29T13:44:38;27.50;99.90
19365;DHT22;9818;48.382;10.850;2022-07-29T13:47:07;27.50;99.90
19365;DHT22;9818;48.382;10.850;2022-07-29T13:49:38;27.70;99.90
19365;DHT22;9818;48.382;10.850;2022-07-29T13:52:07;27.80;99.90
19365;DHT22;9818;48.382;10.850;2022-07-29T13:54:35;28.10;99.90
19365;DHT22;9818;48.382;10.850;2022-07-29T13:57:04;28.30;99.90
19365;DHT22;9818;48.382;10.850;2022-07-29T13:59:32;28.30;99.90
19365;DHT22;9818;48.382;10.850;2022-07-29T14:02:01;28.20;99.90
19365;DHT22;9818;48.382;10.850;2022-07-29T14:04:30;28.20;99.90
19365;DHT22;9818;48.382;10.850;2022-07-29T14:07:01;28.40;99.90
19365;DHT22;9818;48.382;10.850;2022-07-29T14:09:30;28.70;99.90
19365;DHT22;9818;48.382;10.850;2022-07-29T14:11:59;28.60;99.90
19365;DHT22;9818;48.382;10.850;2022-07-29T14:14:27;28.80;99.90
19365;DHT22;9818;48.382;10.850;2022-07-29T14:16:57;29.00;99.90
19365;DHT22;9818;48.382;10.850;2022-07-29T14:19:28;29.00;99.90
19365;DHT22;9818;48.382;10.850;2022-07-29T14:22:03;29.60;99.90
19365;DHT22;9818;48.382;10.850;2022-07-29T14:24:32;29.60;99.90
19365;DHT22;9818;48.382;10.850;2022-07-29T14:27:02;30.30;99.90
19365;DHT22;9818;48.382;10.850;2022-07-29T14:29:31;30.20;99.80
19365;DHT22;9818;48.382;10.850;2022-07-29T14:31:59;30.50;98.70
19365;DHT22;9818;48.382;10.850;2022-07-29T14:34:28;30.30;98.90
19365;DHT22;9818;48.382;10.850;2022-07-29T14:36:56;30.00;99.90
19365;DHT22;9818;48.382;10.850;2022-07-29T14:39:27;29.80;99.90
19365;DHT22;9818;48.382;10.850;2022-07-29T14:41:56;29.50;99.90
19365;DHT22;9818;48.382;10.850;2022-07-29T14:44:24;29.00;99.90
19365;DHT22;9818;48.382;10.850;2022-07-29T14:46:56;29.10;99.90
19365;DHT22;9818;48.382;10.850;2022-07-29T14:49:25;28.80;99.90
19365;DHT22;9818;48.382;10.850;2022-07-29T14:51:53;28.90;99.90
19365;DHT22;9818;48.382;10.850;2022-07-29T14:54:22;28.70;99.90
19365;DHT22;9818;48.382;10.850;2022-07-29T14:56:53;28.80;99.90
19365;DHT22;9818;48.382;10.850;2022-07-29T14:59:22;28.70;99.90
19365;DHT22;9818;48.382;10.850;2022-07-29T15:01:50;28.50;99.90
19365;DHT22;9818;48.382;10.850;2022-07-29T15:04:19;28.60;99.90
19365;DHT22;9818;48.382;10.850;2022-07-29T15:06:47;28.40;99.90
19365;DHT22;9818;48.382;10.850;2022-07-29T15:09:17;28.40;99.90
19365;DHT22;9818;48.382;10.850;2022-07-29T15:11:45;28.40;99.90
19365;DHT22;9818;48.382;10.850;2022-07-29T15:14:16;28.60;99.90
19365;DHT22;9818;48.382;10.850;2022-07-29T15:16:45;28.70;99.90
19365;DHT22;9818;48.382;10.850;2022-07-29T15:19:13;28.70;99.90
19365;DHT22;9818;48.382;10.850;2022-07-29T15:21:42;28.40;99.90
19365;DHT22;9818;48.382;10.850;2022-07-29T15:24:10;28.40;99.90
19365;DHT22;9818;48.382;10.850;2022-07-29T15:26:39;28.60;99.90
19365;DHT22;9818;48.382;10.850;2022-07-29T15:29:07;28.60;99.90
19365;DHT22;9818;48.382;10.850;2022-07-29T15:31:39;28.20;99.90
19365;DHT22;9818;48.382;10.850;2022-07-29T15:34:07;28.20;99.90
19365;DHT22;9818;48.382;10.850;2022-07-29T15:36:36;28.30;99.90
19365;DHT22;9818;48.382;10.850;2022-07-29T15:39:04;28.20;99.90
19365;DHT22;9818;48.382;10.850;2022-07-29T15:41:33;27.80;99.90
19365;DHT22;9818;48.382;10.850;2022-07-29T15:44:01;27.40;99.90
19365;DHT22;9818;48.382;10.850;2022-07-29T15:46:30;27.00;99.90
19365;DHT22;9818;48.382;10.850;2022-07-29T15:49:14;26.70;99.90
19365;DHT22;9818;48.382;10.850;2022-07-29T15:51:43;26.60;99.90
19365;DHT22;9818;48.382;10.850;2022-07-29T15:54:11;26.50;99.90
19365;DHT22;9818;48.382;10.850;2022-07-29T15:56:42;26.40;99.90
19365;DHT22;9818;48.382;10.850;2022-07-29T15:59:10;26.20;99.90
19365;DHT22;9818;48.382;10.850;2022-07-29T16:01:39;25.80;99.90
19365;DHT22;9818;48.382;10.850;2022-07-29T16:04:07;25.70;99.90
19365;DHT22;9818;48.382;10.850;2022-07-29T16:06:38;25.50;99.90
19365;DHT22;9818;48.382;10.850;2022-07-29T16:09:07;25.40;99.90
19365;DHT22;9818;48.382;10.850;2022-07-29T16:11:35;25.20;99.90
19365;DHT22;9818;48.382;10.850;2022-07-29T16:14:04;25.00;99.90
19365;DHT22;9818;48.382;10.850;2022-07-29T16:16:32;24.80;99.90